createdAt,value
2022-09-13T00:00:53.886Z,94935.78
2022-09-13T00:03:21.156Z,94935.44
2022-09-13T00:05:48.750Z,94946.84
2022-09-13T00:08:16.050Z,94947.03
2022-09-13T00:10:43.929Z,94947.13
2022-09-13T00:13:12.593Z,94946.84
2022-09-13T00:15:48.019Z,94948.41
2022-09-13T00:18:15.896Z,94950.28
2022-09-13T00:20:42.625Z,94955.19
2022-09-13T00:23:09.422Z,94946.19
2022-09-13T00:25:36.053Z,94950.34
2022-09-13T00:28:03.269Z,94944.38
2022-09-13T00:30:30.119Z,94942.84
2022-09-13T00:32:56.678Z,94941.34
2022-09-13T00:35:23.880Z,94944.38
2022-09-13T00:37:51.054Z,94948.84
2022-09-13T00:40:17.690Z,94945.13
2022-09-13T00:42:44.301Z,94937.47
2022-09-13T00:45:10.865Z,94939.00
2022-09-13T00:47:52.691Z,94943.53
2022-09-13T00:50:37.362Z,94951.19
2022-09-13T00:53:06.913Z,94933.88
2022-09-13T00:55:44.131Z,94941.03
2022-09-13T00:58:18.200Z,94940.31
2022-09-13T01:00:46.007Z,94955.19
2022-09-13T01:03:15.085Z,94956.56
2022-09-13T01:05:47.258Z,94958.63
2022-09-13T01:08:22.486Z,94959.19
2022-09-13T01:10:53.928Z,94963.75
2022-09-13T01:13:25.966Z,94954.72
2022-09-13T01:15:52.960Z,94959.81
2022-09-13T01:18:20.062Z,94954.81
2022-09-13T01:21:20.310Z,94954.09
2022-09-13T01:24:21.070Z,94953.75
2022-09-13T01:27:02.783Z,94961.47
2022-09-13T01:29:56.691Z,94963.78
2022-09-13T01:32:30.853Z,94960.25
2022-09-13T01:35:23.503Z,94956.00
2022-09-13T01:38:17.666Z,94950.13
2022-09-13T01:41:04.814Z,94944.03
2022-09-13T01:43:31.615Z,94934.22
2022-09-13T01:46:06.492Z,94931.72
2022-09-13T01:48:51.577Z,94939.25
2022-09-13T01:51:20.997Z,94936.47
2022-09-13T01:54:12.881Z,94937.38
2022-09-13T01:56:48.026Z,94936.13
2022-09-13T01:59:17.216Z,94934.56
2022-09-13T02:01:55.849Z,94934.19
2022-09-13T02:04:27.387Z,94936.72
2022-09-13T02:07:09.465Z,94935.28
2022-09-13T02:09:41.538Z,94947.66
2022-09-13T02:12:19.790Z,94940.41
2022-09-13T02:14:52.660Z,94943.72
2022-09-13T02:17:25.905Z,94935.69
2022-09-13T02:19:59.455Z,94940.97
2022-09-13T02:22:34.750Z,94944.84
2022-09-13T02:25:07.069Z,94945.31
2022-09-13T02:27:35.877Z,94938.09
2022-09-13T02:30:06.852Z,94937.88
2022-09-13T02:32:36.274Z,94940.41
2022-09-13T02:35:07.007Z,94935.56
2022-09-13T02:37:36.647Z,94934.47
2022-09-13T02:40:08.678Z,94926.56
2022-09-13T02:42:43.876Z,94940.56
2022-09-13T02:45:13.773Z,94945.84
2022-09-13T02:48:24.132Z,94947.41
2022-09-13T02:50:53.294Z,94945.25
2022-09-13T02:53:47.262Z,94950.59
2022-09-13T02:56:34.766Z,94951.31
2022-09-13T02:59:19.718Z,94953.69
2022-09-13T03:01:53.888Z,94948.78
2022-09-13T03:04:21.772Z,94943.06
2022-09-13T03:06:50.374Z,94945.84
2022-09-13T03:09:18.138Z,94941.81
2022-09-13T03:11:50.554Z,94944.06
2022-09-13T03:14:55.047Z,94943.38
2022-09-13T03:17:49.481Z,94933.25
2022-09-13T03:20:27.023Z,94938.41
2022-09-13T03:23:15.313Z,94942.41
2022-09-13T03:25:50.818Z,94941.75
2022-09-13T03:28:29.542Z,94943.47
2022-09-13T03:31:23.907Z,94937.38
2022-09-13T03:33:59.563Z,94950.34
2022-09-13T03:36:37.869Z,94952.03
2022-09-13T03:39:15.203Z,94952.84
2022-09-13T03:41:48.009Z,94940.56
2022-09-13T03:44:18.359Z,94935.75
2022-09-13T03:46:48.783Z,94927.28
2022-09-13T03:49:18.073Z,94934.69
2022-09-13T03:51:47.878Z,94930.78
2022-09-13T03:54:22.174Z,94951.44
2022-09-13T03:57:10.250Z,94952.03
2022-09-13T03:59:39.253Z,94945.72
2022-09-13T04:02:08.750Z,94938.25
2022-09-13T04:04:35.422Z,94934.16
2022-09-13T04:07:03.937Z,94931.56
2022-09-13T04:09:33.798Z,94931.16
2022-09-13T04:12:00.373Z,94938.19
2022-09-13T04:14:28.448Z,94946.44
2022-09-13T04:16:56.602Z,94950.97
2022-09-13T04:19:24.964Z,94957.78
2022-09-13T04:21:53.531Z,94956.69
2022-09-13T04:24:20.801Z,94960.91
2022-09-13T04:26:51.571Z,94955.63
2022-09-13T04:29:18.427Z,94948.75
2022-09-13T04:31:49.774Z,94960.38
2022-09-13T04:34:18.719Z,94952.44
2022-09-13T04:36:46.046Z,94947.19
2022-09-13T04:39:14.604Z,94950.88
2022-09-13T04:41:47.139Z,94951.63
2022-09-13T04:44:16.055Z,94959.06
2022-09-13T04:46:43.051Z,94953.31
2022-09-13T04:49:10.302Z,94949.31
2022-09-13T04:51:36.937Z,94955.78
2022-09-13T04:54:03.702Z,94952.50
2022-09-13T04:56:30.288Z,94954.72
2022-09-13T04:58:57.079Z,94954.41
2022-09-13T05:01:27.873Z,94946.47
2022-09-13T05:03:55.578Z,94947.25
2022-09-13T05:06:23.022Z,94941.25
2022-09-13T05:08:55.550Z,94939.59
2022-09-13T05:11:23.347Z,94930.44
2022-09-13T05:13:57.634Z,94930.28
2022-09-13T05:16:29.735Z,94928.13
2022-09-13T05:18:57.295Z,94926.56
2022-09-13T05:21:24.613Z,94932.56
2022-09-13T05:23:54.889Z,94933.06
2022-09-13T05:26:23.246Z,94951.31
2022-09-13T05:28:50.149Z,94954.75
2022-09-13T05:31:24.946Z,94934.06
2022-09-13T05:33:58.850Z,94935.09
2022-09-13T05:36:26.242Z,94927.53
2022-09-13T05:39:18.719Z,94924.69
2022-09-13T05:41:44.773Z,94928.84
2022-09-13T05:44:13.514Z,94929.69
2022-09-13T05:46:41.482Z,94934.31
2022-09-13T05:49:08.006Z,94930.50
2022-09-13T05:51:34.577Z,94926.38
2022-09-13T05:54:01.138Z,94932.34
2022-09-13T05:56:29.974Z,94933.31
2022-09-13T05:58:56.660Z,94922.34
2022-09-13T06:01:26.111Z,94928.56
2022-09-13T06:03:57.649Z,94932.81
2022-09-13T06:06:25.182Z,94925.50
2022-09-13T06:08:56.546Z,94923.31
2022-09-13T06:11:25.471Z,94932.03
2022-09-13T06:13:52.095Z,94925.19
2022-09-13T06:16:19.305Z,94926.69
2022-09-13T06:18:45.926Z,94920.88
2022-09-13T06:21:18.314Z,94916.09
2022-09-13T06:23:49.374Z,94907.53
2022-09-13T06:26:17.457Z,94915.69
2022-09-13T06:28:48.527Z,94910.31
2022-09-13T06:31:17.310Z,94911.16
2022-09-13T06:33:45.118Z,94904.69
2022-09-13T06:36:18.199Z,94898.69
2022-09-13T06:38:46.570Z,94895.88
2022-09-13T06:41:15.972Z,94906.00
2022-09-13T06:43:42.486Z,94896.81
2022-09-13T06:46:14.922Z,94899.94
2022-09-13T06:48:43.261Z,94894.16
2022-09-13T06:51:21.276Z,94897.47
2022-09-13T06:53:49.023Z,94884.16
2022-09-13T06:56:21.133Z,94885.97
2022-09-13T06:58:50.542Z,94868.88
2022-09-13T07:01:19.353Z,94881.59
2022-09-13T07:03:54.652Z,94870.63
2022-09-13T07:06:29.766Z,94873.41
2022-09-13T07:08:57.849Z,94882.91
2022-09-13T07:11:26.410Z,94881.88
2022-09-13T07:13:55.225Z,94880.69
2022-09-13T07:16:24.653Z,94884.84
2022-09-13T07:18:52.910Z,94870.72
2022-09-13T07:21:20.508Z,94876.72
2022-09-13T07:23:47.122Z,94874.81
2022-09-13T07:26:13.974Z,94863.41
2022-09-13T07:28:42.932Z,94862.19
2022-09-13T07:31:18.613Z,94854.88
2022-09-13T07:33:45.718Z,94852.81
2022-09-13T07:36:13.192Z,94860.09
2022-09-13T07:38:46.274Z,94858.56
2022-09-13T07:41:15.223Z,94863.03
2022-09-13T07:43:42.075Z,94855.84
2022-09-13T07:46:17.961Z,94865.97
2022-09-13T07:48:46.796Z,94865.25
2022-09-13T07:51:34.012Z,94865.97
2022-09-13T07:54:06.117Z,94865.88
2022-09-13T07:56:34.987Z,94870.63
2022-09-13T07:59:05.924Z,94877.63
2022-09-13T08:01:49.949Z,94860.69
2022-09-13T08:04:19.938Z,94866.03
2022-09-13T08:06:47.109Z,94861.53
2022-09-13T08:09:15.025Z,94874.59
2022-09-13T08:11:44.369Z,94882.78
2022-09-13T08:14:13.259Z,94892.47
2022-09-13T08:16:40.211Z,94895.16
2022-09-13T08:19:08.895Z,94895.28
2022-09-13T08:21:38.096Z,94896.00
2022-09-13T08:24:06.375Z,94898.06
2022-09-13T08:26:34.596Z,94899.28
2022-09-13T08:29:03.728Z,94903.72
2022-09-13T08:31:31.276Z,94892.84
2022-09-13T08:33:58.557Z,94899.00
2022-09-13T08:36:26.768Z,94894.66
2022-09-13T08:38:59.256Z,94900.97
2022-09-13T08:41:47.967Z,94908.66
2022-09-13T08:44:26.378Z,94895.22
2022-09-13T08:46:59.384Z,94893.06
2022-09-13T08:49:31.200Z,94888.47
2022-09-13T08:52:23.994Z,94885.88
2022-09-13T08:54:54.887Z,94895.25
2022-09-13T08:57:29.404Z,94890.16
2022-09-13T09:00:02.625Z,94887.59
2022-09-13T09:03:02.765Z,94885.78
2022-09-13T09:05:32.725Z,94889.88
2022-09-13T09:08:02.251Z,94886.13
2022-09-13T09:10:36.927Z,94888.81
2022-09-13T09:13:08.439Z,94884.75
2022-09-13T09:15:42.231Z,94880.53
2022-09-13T09:18:18.795Z,94881.19
2022-09-13T09:20:49.294Z,94879.53
2022-09-13T09:23:42.419Z,94879.66
2022-09-13T09:26:22.499Z,94872.38
2022-09-13T09:28:59.933Z,94866.88
2022-09-13T09:31:42.971Z,94868.19
2022-09-13T09:34:45.529Z,94872.56
2022-09-13T09:37:25.134Z,94868.03
2022-09-13T09:40:01.958Z,94860.53
2022-09-13T09:42:35.348Z,94862.88
2022-09-13T09:45:06.697Z,94857.91
2022-09-13T09:47:47.751Z,94867.47
2022-09-13T09:50:30.917Z,94861.81
2022-09-13T09:53:03.301Z,94857.34
2022-09-13T09:55:53.340Z,94845.66
2022-09-13T09:58:37.666Z,94844.81
2022-09-13T10:01:09.506Z,94848.50
2022-09-13T10:03:39.983Z,94841.06
2022-09-13T10:06:18.623Z,94829.78
2022-09-13T10:08:56.311Z,94829.03
2022-09-13T10:11:24.464Z,94816.31
2022-09-13T10:14:00.185Z,94823.72
2022-09-13T10:16:29.141Z,94813.97
2022-09-13T10:19:23.154Z,94811.06
2022-09-13T10:22:05.845Z,94821.00
2022-09-13T10:24:33.033Z,94816.28
2022-09-13T10:27:00.131Z,94811.06
2022-09-13T10:29:28.691Z,94805.22
2022-09-13T10:31:57.926Z,94797.94
2022-09-13T10:34:29.426Z,94806.59
2022-09-13T10:37:22.581Z,94801.03
2022-09-13T10:39:57.151Z,94800.78
2022-09-13T10:42:26.765Z,94789.28
2022-09-13T10:45:02.582Z,94792.25
2022-09-13T10:47:45.060Z,94785.34
2022-09-13T10:50:25.958Z,94774.75
2022-09-13T10:52:58.036Z,94781.78
2022-09-13T10:55:35.269Z,94774.31
2022-09-13T10:58:01.882Z,94772.66
2022-09-13T11:01:13.509Z,94760.09
2022-09-13T11:03:52.798Z,94762.09
2022-09-13T11:06:40.485Z,94764.91
2022-09-13T11:09:22.030Z,94752.16
2022-09-13T11:12:15.783Z,94747.09
2022-09-13T11:15:19.021Z,94753.91
2022-09-13T11:18:17.664Z,94765.13
2022-09-13T11:20:50.062Z,94749.00
2022-09-13T11:23:36.866Z,94743.59
2022-09-13T11:26:20.350Z,94752.53
2022-09-13T11:28:49.934Z,94753.44
2022-09-13T11:31:47.120Z,94751.03
2022-09-13T11:34:36.351Z,94755.25
2022-09-13T11:37:17.998Z,94750.81
2022-09-13T11:39:59.989Z,94748.34
2022-09-13T11:43:06.372Z,94747.88
2022-09-13T11:45:40.072Z,94764.59
2022-09-13T11:48:27.286Z,94744.28
2022-09-13T11:50:59.753Z,94739.94
2022-09-13T11:53:56.920Z,94734.53
2022-09-13T11:56:35.066Z,94738.13
2022-09-13T11:59:31.679Z,94721.31
2022-09-13T12:02:03.679Z,94718.47
2022-09-13T12:05:18.360Z,94729.09
2022-09-13T12:07:47.562Z,94721.53
2022-09-13T12:10:25.270Z,94716.22
2022-09-13T12:12:53.777Z,94717.78
2022-09-13T12:15:26.175Z,94708.19
2022-09-13T12:17:59.928Z,94710.78
2022-09-13T12:20:43.161Z,94704.53
2022-09-13T12:23:19.536Z,94705.38
2022-09-13T12:25:57.652Z,94701.81
2022-09-13T12:28:40.806Z,94706.13
2022-09-13T12:31:13.046Z,94709.50
2022-09-13T12:33:41.668Z,94709.41
2022-09-13T12:36:25.913Z,94705.34
2022-09-13T12:38:58.365Z,94713.38
2022-09-13T12:41:31.338Z,94702.94
2022-09-13T12:44:25.508Z,94709.50
2022-09-13T12:47:13.342Z,94720.59
2022-09-13T12:50:15.099Z,94713.03
2022-09-13T12:53:05.829Z,94708.50
2022-09-13T12:55:53.212Z,94709.31
2022-09-13T12:58:40.668Z,94704.09
2022-09-13T13:01:14.494Z,94693.09
2022-09-13T13:03:50.580Z,94696.09
2022-09-13T13:06:37.182Z,94701.91
2022-09-13T13:09:28.787Z,94694.00
2022-09-13T13:11:58.462Z,94683.88
2022-09-13T13:14:39.156Z,94689.94
2022-09-13T13:17:43.588Z,94687.81
2022-09-13T13:21:06.959Z,94685.44
2022-09-13T13:26:58.190Z,94681.09
2022-09-13T13:29:32.632Z,94676.00
2022-09-13T13:32:07.400Z,94684.50
2022-09-13T13:34:41.834Z,94681.44
2022-09-13T13:37:08.787Z,94682.94
2022-09-13T13:39:35.299Z,94691.13
2022-09-13T13:42:20.621Z,94690.56
2022-09-13T13:44:47.176Z,94690.31
2022-09-13T13:47:13.732Z,94687.34
2022-09-13T13:49:44.231Z,94695.66
2022-09-13T13:52:10.821Z,94702.53
2022-09-13T13:54:44.207Z,94700.31
2022-09-13T13:57:25.939Z,94693.69
2022-09-13T14:00:13.099Z,94696.56
2022-09-13T14:02:53.521Z,94693.91
2022-09-13T14:05:44.722Z,94684.09
2022-09-13T14:08:31.542Z,94682.22
2022-09-13T14:11:26.298Z,94694.81
2022-09-13T14:14:01.895Z,94687.03
2022-09-13T14:16:47.134Z,94681.75
2022-09-13T14:19:24.380Z,94692.09
2022-09-13T14:22:20.861Z,94688.34
2022-09-13T14:25:11.808Z,94692.59
2022-09-13T14:27:41.447Z,94692.81
2022-09-13T14:30:20.220Z,94691.13
2022-09-13T14:32:50.094Z,94694.06
2022-09-13T14:35:32.496Z,94691.13
2022-09-13T14:38:23.172Z,94674.81
2022-09-13T14:40:54.486Z,94685.94
2022-09-13T14:43:26.644Z,94676.13
2022-09-13T14:46:05.122Z,94675.66
2022-09-13T14:48:39.287Z,94674.38
2022-09-13T14:51:18.058Z,94673.09
2022-09-13T14:53:49.696Z,94668.69
2022-09-13T14:56:51.512Z,94664.88
2022-09-13T14:59:28.055Z,94666.81
2022-09-13T15:01:55.710Z,94657.66
2022-09-13T15:04:24.791Z,94654.28
2022-09-13T15:07:09.913Z,94654.88
2022-09-13T15:09:38.396Z,94649.56
2022-09-13T15:12:05.146Z,94642.06
2022-09-13T15:14:38.006Z,94650.41
2022-09-13T15:17:14.653Z,94641.09
2022-09-13T15:19:52.973Z,94645.78
2022-09-13T15:22:23.764Z,94636.81
2022-09-13T15:24:59.142Z,94635.50
2022-09-13T15:27:43.446Z,94641.59
2022-09-13T15:30:30.119Z,94640.44
2022-09-13T15:33:12.747Z,94630.78
2022-09-13T15:35:41.782Z,94639.63
2022-09-13T15:38:23.279Z,94633.72
2022-09-13T15:41:19.710Z,94627.69
2022-09-13T15:43:49.375Z,94618.78
2022-09-13T15:46:16.993Z,94627.19
2022-09-13T15:48:59.267Z,94621.75
2022-09-13T15:51:26.525Z,94609.22
2022-09-13T15:53:54.148Z,94619.34
2022-09-13T15:56:23.791Z,94616.09
2022-09-13T15:58:50.349Z,94609.25
2022-09-13T16:01:17.625Z,94599.34
2022-09-13T16:03:44.239Z,94601.59
2022-09-13T16:06:11.159Z,94592.63
2022-09-13T16:08:38.978Z,94591.69
2022-09-13T16:11:06.379Z,94587.03
2022-09-13T16:13:33.268Z,94586.47
2022-09-13T16:16:00.214Z,94590.56
2022-09-13T16:18:26.932Z,94585.22
2022-09-13T16:20:54.244Z,94581.34
2022-09-13T16:23:20.777Z,94586.28
2022-09-13T16:25:47.854Z,94583.84
2022-09-13T16:28:21.160Z,94591.19
2022-09-13T16:30:48.728Z,94585.75
2022-09-13T16:33:15.427Z,94576.88
2022-09-13T16:35:42.280Z,94579.34
2022-09-13T16:38:10.609Z,94575.41
2022-09-13T16:40:41.371Z,94565.53
2022-09-13T16:43:08.214Z,94573.75
2022-09-13T16:45:38.409Z,94575.03
2022-09-13T16:48:05.162Z,94579.47
2022-09-13T16:50:34.488Z,94572.31
2022-09-13T16:53:01.938Z,94581.34
2022-09-13T16:55:28.669Z,94581.28
2022-09-13T16:57:55.390Z,94572.22
2022-09-13T17:00:24.420Z,94581.16
2022-09-13T17:02:51.745Z,94582.03
2022-09-13T17:05:18.452Z,94584.50
2022-09-13T17:07:44.963Z,94578.34
2022-09-13T17:10:12.689Z,94584.22
2022-09-13T17:12:40.190Z,94586.81
2022-09-13T17:15:07.237Z,94586.84
2022-09-13T17:17:36.276Z,94598.47
2022-09-13T17:20:13.166Z,94585.44
2022-09-13T17:22:40.783Z,94584.25
2022-09-13T17:25:08.247Z,94586.13
2022-09-13T17:27:35.886Z,94595.25
2022-09-13T17:30:04.959Z,94582.81
2022-09-13T17:32:31.742Z,94585.66
2022-09-13T17:34:58.405Z,94588.34
2022-09-13T17:37:25.211Z,94582.56
2022-09-13T17:39:52.341Z,94580.69
2022-09-13T17:42:22.617Z,94580.13
2022-09-13T17:44:49.977Z,94587.09
2022-09-13T17:47:16.463Z,94586.63
2022-09-13T17:49:43.050Z,94581.34
2022-09-13T17:52:09.930Z,94583.41
2022-09-13T17:54:36.448Z,94579.16
2022-09-13T17:57:03.080Z,94585.72
2022-09-13T17:59:30.538Z,94594.28
2022-09-13T18:01:59.336Z,94587.28
2022-09-13T18:04:26.757Z,94586.44
2022-09-13T18:06:53.945Z,94580.22
2022-09-13T18:09:21.196Z,94581.06
2022-09-13T18:11:47.863Z,94585.59
2022-09-13T18:14:16.061Z,94577.25
2022-09-13T18:16:43.254Z,94578.19
2022-09-13T18:19:10.529Z,94584.28
2022-09-13T18:21:37.353Z,94585.13
2022-09-13T18:24:04.650Z,94574.69
2022-09-13T18:26:32.716Z,94573.75
2022-09-13T18:29:02.832Z,94587.97
2022-09-13T18:31:31.509Z,94580.00
2022-09-13T18:34:01.332Z,94580.56
2022-09-13T18:36:29.730Z,94580.75
2022-09-13T18:38:57.505Z,94580.28
2022-09-13T18:41:30.716Z,94586.56
2022-09-13T18:43:58.608Z,94594.25
2022-09-13T18:46:30.566Z,94587.41
2022-09-13T18:48:58.342Z,94594.34
2022-09-13T18:51:28.766Z,94602.38
2022-09-13T18:53:56.243Z,94599.16
2022-09-13T18:56:23.773Z,94606.72
2022-09-13T18:58:55.096Z,94605.78
2022-09-13T19:01:31.397Z,94614.88
2022-09-13T19:04:03.527Z,94626.41
2022-09-13T19:06:38.395Z,94619.19
2022-09-13T19:09:06.362Z,94616.38
2022-09-13T19:11:47.826Z,94626.03
2022-09-13T19:14:23.375Z,94613.56
2022-09-13T19:16:51.240Z,94613.09
2022-09-13T19:19:18.105Z,94610.00
2022-09-13T19:21:44.743Z,94611.03
2022-09-13T19:24:17.699Z,94605.78
2022-09-13T19:26:46.942Z,94605.69
2022-09-13T19:29:16.193Z,94610.78
2022-09-13T19:31:47.585Z,94620.59
2022-09-13T19:34:14.979Z,94613.00
2022-09-13T19:36:43.168Z,94620.78
2022-09-13T19:39:10.207Z,94623.06
2022-09-13T19:41:37.848Z,94622.63
2022-09-13T19:44:05.429Z,94615.66
2022-09-13T19:46:37.916Z,94624.75
2022-09-13T19:49:06.052Z,94624.19
2022-09-13T19:51:37.302Z,94623.69
2022-09-13T19:54:05.245Z,94634.06
2022-09-13T19:56:39.871Z,94627.22
2022-09-13T19:59:08.791Z,94632.00
2022-09-13T20:01:42.178Z,94641.59
2022-09-13T20:04:18.364Z,94645.69
2022-09-13T20:06:50.099Z,94652.84
2022-09-13T20:09:18.421Z,94656.03
2022-09-13T20:11:45.769Z,94646.59
2022-09-13T20:14:14.528Z,94653.31
2022-09-13T20:16:42.779Z,94646.66
2022-09-13T20:19:38.993Z,94648.97
2022-09-13T20:22:03.035Z,94634.06
2022-09-13T20:24:29.613Z,94639.44
2022-09-13T20:26:56.186Z,94630.63
2022-09-13T20:29:22.775Z,94629.91
2022-09-13T20:31:49.423Z,94641.47
2022-09-13T20:34:16.030Z,94646.41
2022-09-13T20:36:47.138Z,94645.72
2022-09-13T20:39:15.176Z,94647.38
2022-09-13T20:41:43.183Z,94642.81
2022-09-13T20:44:09.775Z,94635.97
2022-09-13T20:46:37.634Z,94633.75
2022-09-13T20:49:05.398Z,94632.09
2022-09-13T20:51:34.658Z,94633.94
2022-09-13T20:54:01.601Z,94625.25
2022-09-13T20:56:29.309Z,94629.19
2022-09-13T20:58:59.873Z,94633.94
2022-09-13T21:01:29.747Z,94639.03
2022-09-13T21:03:57.686Z,94628.34
2022-09-13T21:06:27.177Z,94627.88
2022-09-13T21:08:56.306Z,94626.22
2022-09-13T21:11:30.158Z,94632.03
2022-09-13T21:13:59.916Z,94622.03
2022-09-13T21:16:33.233Z,94622.34
2022-09-13T21:19:03.466Z,94621.38
2022-09-13T21:21:33.277Z,94612.22
2022-09-13T21:24:08.726Z,94613.78
2022-09-13T21:26:36.546Z,94615.56
2022-09-13T21:29:03.123Z,94602.22
2022-09-13T21:31:32.169Z,94601.66
2022-09-13T21:34:01.418Z,94599.50
2022-09-13T21:36:29.279Z,94608.19
2022-09-13T21:38:56.711Z,94598.94
2022-09-13T21:41:25.254Z,94600.16
2022-09-13T21:43:51.986Z,94581.72
2022-09-13T21:46:22.459Z,94595.44
2022-09-13T21:48:54.967Z,94592.84
2022-09-13T21:51:24.476Z,94591.63
2022-09-13T21:53:58.181Z,94596.03
2022-09-13T21:56:30.666Z,94591.63
2022-09-13T21:59:00.588Z,94583.09
2022-09-13T22:01:30.456Z,94590.75
2022-09-13T22:03:58.126Z,94594.03
2022-09-13T22:06:27.353Z,94591.69
2022-09-13T22:08:58.173Z,94586.34
2022-09-13T22:11:31.414Z,94581.59
2022-09-13T22:13:59.035Z,94596.78
2022-09-13T22:16:28.057Z,94587.41
2022-09-13T22:18:57.374Z,94592.63
2022-09-13T22:21:27.485Z,94587.25
2022-09-13T22:23:54.363Z,94589.88
2022-09-13T22:26:24.609Z,94591.34
2022-09-13T22:28:53.408Z,94596.09
2022-09-13T22:31:28.081Z,94590.72
2022-09-13T22:33:56.050Z,94589.09
2022-09-13T22:36:23.948Z,94592.81
2022-09-13T22:38:54.770Z,94584.66
2022-09-13T22:41:26.699Z,94590.34
2022-09-13T22:43:54.302Z,94603.66
2022-09-13T22:46:26.877Z,94597.09
2022-09-13T22:48:54.610Z,94586.78
2022-09-13T22:51:21.956Z,94580.59
2022-09-13T22:53:50.606Z,94583.88
2022-09-13T22:56:24.520Z,94596.09
2022-09-13T22:58:56.998Z,94602.84
2022-09-13T23:01:24.998Z,94577.91
2022-09-13T23:03:52.655Z,94564.53
2022-09-13T23:06:20.973Z,94570.97
2022-09-13T23:08:49.060Z,94562.81
2022-09-13T23:11:27.046Z,94557.72
2022-09-13T23:13:55.302Z,94557.97
2022-09-13T23:16:26.355Z,94562.19
2022-09-13T23:18:54.257Z,94561.28
2022-09-13T23:21:22.258Z,94564.06
2022-09-13T23:23:49.226Z,94560.94
2022-09-13T23:26:18.767Z,94557.72
2022-09-13T23:28:47.135Z,94571.34
2022-09-13T23:31:16.335Z,94571.75
2022-09-13T23:33:45.225Z,94580.47
2022-09-13T23:36:13.726Z,94580.94
2022-09-13T23:38:41.057Z,94567.63
2022-09-13T23:41:08.018Z,94572.13
2022-09-13T23:43:34.572Z,94574.63
2022-09-13T23:46:01.209Z,94581.44
2022-09-13T23:48:28.242Z,94564.66
2022-09-13T23:51:18.834Z,94562.09
2022-09-13T23:53:45.869Z,94559.31
2022-09-13T23:56:13.647Z,94571.78
2022-09-13T23:58:40.746Z,94574.31
